Saturday, January 31, 2015
22:36 UTC
  |  Log In   |  Register Free
Airport Search:

Clayton Municipal Airport
(11A)

Clayton Municipal Airport Diagram
No Airport Diagram Available

FAA data valid effective January 08, 2015 - March 05, 2015 (unless otherwise noted).

 
 
 
 
 
 
 
 
 
 
 
 
 
 

Current Aviation Weather for Clayton Municipal Airport (11A)

METAR data is unavailable for 11A. The nearest METAR location is at KEUF (18.6 nm NE from 11A).

The most recent METAR observation for KEUF was updated at: 2210
METAR Summary (Translated METAR)
KEUF
312158Z AUTO 00000KT 10SM CLR 16/M05 A3026 RMK AO2 SLP246 T01611050
(18.6 nm NE from 11A)
KTOI
312153Z AUTO 11005KT 10SM CLR 17/M06 A3026 RMK AO2 SLP247 T01671061
(26.9 nm SW from 11A)
TAF Summary (Translated TAF)
KTOI
(45.4 nm SW from KEUF)
311732Z 3118/0118 13003KT P6SM SCT250 FM312200 13003KT P6SM OVC250 FM011400 16009KT P6SM OVC025
  Airport Weather Conditions for 11A

Current weather conditions are
not available for 11A


The nearest NOAA weather station
is at EUF, (18.6 nm NE from 11A)
  
 Current Weather at EUF
63° F
Fair
Variable winds at 4.6 mph
EUF NOAA Radar

Pressure: 30.26 in
Humidity: 22%
Wind: Variable at 4.6 MPH (4 KT)
Dew Point: 23.0°F
Visibility: 10.00 mi


Airport Weather Forecast for 11A

Translated METAR and TAF for KEUF
Translated METAR for KEUF (2236 UTC 31 January 2015)
found at http://aviationweather.gov/adds/metars/
 
METAR text: KEUF 312158Z AUTO 00000KT 10SM CLR 16/M05 A3026 RMK AO2 SLP246 T01611050
Conditions at: KEUF (EUFAULA , AL, US) observed 2158 UTC 31 January 2015
Temperature: 16.1°C (61°F)
Dewpoint: -5.0°C (23°F) [RH = 23%]
Pressure (altimeter): 30.26 inches Hg (1024.8 mb)
[Sea-level pressure: 1024.6 mb]
Winds: calm
Visibility: 10 or more miles (16+ km)
Ceiling: at least 12,000 feet AGL
Clouds: sky clear below 12,000 feet AGL
Weather: automated observation with no human augmentation;
there may or may not be significant weather present at this time
Translated TAF for KEUF

There is no translated TAF available for this airport

Find All Airport Services Find A Hotel Find A Rental Car Find A Golf Course Find A Restaurant $100 Hamburger



FBO's on the Field
FBO Company Facility Photos Services Transportation Aviation Fuel Prices: Prices include tax
Catering Weather Repair Courtesy Rental Type 100LL JetA JetA+ MOGAS 8087
 
Add another FBO Facility Photos Catering Weather Repair Courtesy Rental Type 100LL JetA JetA+ MOGAS 8087
Services Transportation Aviation Fuel Prices: Prices include tax
There are no FBO's currently reporting fuel at 11A. List your FBO now


model-print
model-print
model-print
model-print